sensor_id;sensor_type;location;lat;lon;timestamp;temperature;humidity
2929;DHT22;1474;51.460;7.150;2022-11-30T00:00:56;8.90;99.90
2929;DHT22;1474;51.460;7.150;2022-11-30T00:03:21;8.90;99.90
2929;DHT22;1474;51.460;7.150;2022-11-30T00:05:47;8.80;99.90
2929;DHT22;1474;51.460;7.150;2022-11-30T00:08:13;8.80;99.90
2929;DHT22;1474;51.460;7.150;2022-11-30T00:10:40;8.90;99.90
2929;DHT22;1474;51.460;7.150;2022-11-30T00:13:06;8.90;99.90
2929;DHT22;1474;51.460;7.150;2022-11-30T00:15:32;8.90;99.90
2929;DHT22;1474;51.460;7.150;2022-11-30T00:17:59;8.90;99.90
2929;DHT22;1474;51.460;7.150;2022-11-30T00:20:25;8.90;99.90
2929;DHT22;1474;51.460;7.150;2022-11-30T00:22:51;8.90;99.90
2929;DHT22;1474;51.460;7.150;2022-11-30T00:25:16;8.90;99.90
2929;DHT22;1474;51.460;7.150;2022-11-30T00:27:42;8.90;99.90
2929;DHT22;1474;51.460;7.150;2022-11-30T00:30:08;8.90;99.90
2929;DHT22;1474;51.460;7.150;2022-11-30T00:32:34;8.90;99.90
2929;DHT22;1474;51.460;7.150;2022-11-30T00:34:59;8.90;99.90
2929;DHT22;1474;51.460;7.150;2022-11-30T00:37:25;8.90;99.90
2929;DHT22;1474;51.460;7.150;2022-11-30T00:39:51;8.90;99.90
2929;DHT22;1474;51.460;7.150;2022-11-30T00:42:16;8.90;99.90
2929;DHT22;1474;51.460;7.150;2022-11-30T00:44:42;8.90;99.90
2929;DHT22;1474;51.460;7.150;2022-11-30T00:47:08;8.90;99.90
2929;DHT22;1474;51.460;7.150;2022-11-30T00:49:33;8.90;99.90
2929;DHT22;1474;51.460;7.150;2022-11-30T00:52:02;8.80;99.90
2929;DHT22;1474;51.460;7.150;2022-11-30T00:54:28;8.80;99.90
2929;DHT22;1474;51.460;7.150;2022-11-30T00:56:53;8.80;99.90
2929;DHT22;1474;51.460;7.150;2022-11-30T00:59:19;8.80;99.90
2929;DHT22;1474;51.460;7.150;2022-11-30T01:01:45;8.90;99.90
2929;DHT22;1474;51.460;7.150;2022-11-30T01:04:10;8.80;99.90
2929;DHT22;1474;51.460;7.150;2022-11-30T01:06:36;8.90;99.90
2929;DHT22;1474;51.460;7.150;2022-11-30T01:09:02;8.90;99.90
2929;DHT22;1474;51.460;7.150;2022-11-30T01:11:29;8.90;99.90
2929;DHT22;1474;51.460;7.150;2022-11-30T01:13:56;8.90;99.90
2929;DHT22;1474;51.460;7.150;2022-11-30T01:16:25;8.90;99.90
2929;DHT22;1474;51.460;7.150;2022-11-30T01:18:51;8.80;99.90
2929;DHT22;1474;51.460;7.150;2022-11-30T01:21:22;8.90;99.90
2929;DHT22;1474;51.460;7.150;2022-11-30T01:23:48;8.90;99.90
2929;DHT22;1474;51.460;7.150;2022-11-30T01:26:15;8.80;99.90
2929;DHT22;1474;51.460;7.150;2022-11-30T01:28:41;8.80;99.90
2929;DHT22;1474;51.460;7.150;2022-11-30T01:31:11;8.80;99.90
2929;DHT22;1474;51.460;7.150;2022-11-30T01:33:38;8.80;99.90
2929;DHT22;1474;51.460;7.150;2022-11-30T01:38:37;8.90;99.90
2929;DHT22;1474;51.460;7.150;2022-11-30T01:41:04;8.90;99.90
2929;DHT22;1474;51.460;7.150;2022-11-30T01:43:47;8.90;99.90
2929;DHT22;1474;51.460;7.150;2022-11-30T01:48:44;8.90;99.90
2929;DHT22;1474;51.460;7.150;2022-11-30T01:51:11;8.90;99.90
2929;DHT22;1474;51.460;7.150;2022-11-30T01:53:37;8.90;99.90
2929;DHT22;1474;51.460;7.150;2022-11-30T01:56:03;9.00;99.90
2929;DHT22;1474;51.460;7.150;2022-11-30T01:58:29;9.00;99.90
2929;DHT22;1474;51.460;7.150;2022-11-30T02:00:55;9.00;99.90
2929;DHT22;1474;51.460;7.150;2022-11-30T02:05:52;9.00;99.90
2929;DHT22;1474;51.460;7.150;2022-11-30T02:08:19;9.00;99.90
2929;DHT22;1474;51.460;7.150;2022-11-30T02:10:50;9.00;99.90
2929;DHT22;1474;51.460;7.150;2022-11-30T02:30:30;8.40;99.90
2929;DHT22;1474;51.460;7.150;2022-11-30T02:33:14;8.40;99.90
2929;DHT22;1474;51.460;7.150;2022-11-30T02:35:44;8.30;99.90
2929;DHT22;1474;51.460;7.150;2022-11-30T02:38:12;8.30;99.90
2929;DHT22;1474;51.460;7.150;2022-11-30T02:40:38;8.20;99.90
2929;DHT22;1474;51.460;7.150;2022-11-30T02:43:05;8.30;99.90
2929;DHT22;1474;51.460;7.150;2022-11-30T02:48:10;8.20;99.90
2929;DHT22;1474;51.460;7.150;2022-11-30T02:53:02;8.00;99.90
2929;DHT22;1474;51.460;7.150;2022-11-30T02:55:28;8.00;99.90
2929;DHT22;1474;51.460;7.150;2022-11-30T02:57:54;8.00;99.90
2929;DHT22;1474;51.460;7.150;2022-11-30T03:00:19;8.00;99.90
2929;DHT22;1474;51.460;7.150;2022-11-30T03:02:45;8.00;99.90
2929;DHT22;1474;51.460;7.150;2022-11-30T03:05:11;8.10;99.90
2929;DHT22;1474;51.460;7.150;2022-11-30T03:07:36;8.10;99.90
2929;DHT22;1474;51.460;7.150;2022-11-30T03:10:04;8.10;99.90
2929;DHT22;1474;51.460;7.150;2022-11-30T03:12:29;8.10;99.90
2929;DHT22;1474;51.460;7.150;2022-11-30T03:14:55;8.00;99.90
2929;DHT22;1474;51.460;7.150;2022-11-30T03:17:23;7.90;99.90
2929;DHT22;1474;51.460;7.150;2022-11-30T03:19:49;7.90;99.90
2929;DHT22;1474;51.460;7.150;2022-11-30T03:22:14;7.90;99.90
2929;DHT22;1474;51.460;7.150;2022-11-30T03:24:40;7.90;99.90
2929;DHT22;1474;51.460;7.150;2022-11-30T03:27:06;7.90;99.90
2929;DHT22;1474;51.460;7.150;2022-11-30T03:29:31;7.90;99.90
2929;DHT22;1474;51.460;7.150;2022-11-30T03:31:57;7.90;99.90
2929;DHT22;1474;51.460;7.150;2022-11-30T03:34:22;7.80;99.90
2929;DHT22;1474;51.460;7.150;2022-11-30T03:36:50;7.90;99.90
2929;DHT22;1474;51.460;7.150;2022-11-30T03:39:16;7.80;99.90
2929;DHT22;1474;51.460;7.150;2022-11-30T03:41:42;7.80;99.90
2929;DHT22;1474;51.460;7.150;2022-11-30T03:44:07;7.80;99.90
2929;DHT22;1474;51.460;7.150;2022-11-30T03:46:33;7.70;99.90
2929;DHT22;1474;51.460;7.150;2022-11-30T03:48:59;7.70;99.90
2929;DHT22;1474;51.460;7.150;2022-11-30T03:51:24;7.70;99.90
2929;DHT22;1474;51.460;7.150;2022-11-30T03:53:50;7.70;99.90
2929;DHT22;1474;51.460;7.150;2022-11-30T03:56:16;7.70;99.90
2929;DHT22;1474;51.460;7.150;2022-11-30T03:58:41;7.70;99.90
2929;DHT22;1474;51.460;7.150;2022-11-30T04:01:13;7.70;99.90
2929;DHT22;1474;51.460;7.150;2022-11-30T04:03:39;7.70;99.90
2929;DHT22;1474;51.460;7.150;2022-11-30T04:06:06;7.70;99.90
2929;DHT22;1474;51.460;7.150;2022-11-30T04:08:33;7.70;99.90
2929;DHT22;1474;51.460;7.150;2022-11-30T04:11:00;7.60;99.90
2929;DHT22;1474;51.460;7.150;2022-11-30T04:13:28;7.60;99.90
2929;DHT22;1474;51.460;7.150;2022-11-30T04:15:54;7.60;99.90
2929;DHT22;1474;51.460;7.150;2022-11-30T04:18:21;7.60;99.90
2929;DHT22;1474;51.460;7.150;2022-11-30T04:20:55;7.70;99.90
2929;DHT22;1474;51.460;7.150;2022-11-30T04:23:22;7.70;99.90
2929;DHT22;1474;51.460;7.150;2022-11-30T04:25:48;7.70;99.90
2929;DHT22;1474;51.460;7.150;2022-11-30T04:28:15;7.80;99.90
2929;DHT22;1474;51.460;7.150;2022-11-30T04:30:42;7.70;99.90
2929;DHT22;1474;51.460;7.150;2022-11-30T04:33:08;7.70;99.90
2929;DHT22;1474;51.460;7.150;2022-11-30T04:35:41;7.70;99.90
2929;DHT22;1474;51.460;7.150;2022-11-30T04:38:07;7.70;99.90
2929;DHT22;1474;51.460;7.150;2022-11-30T04:40:33;7.70;99.90
2929;DHT22;1474;51.460;7.150;2022-11-30T04:42:58;7.70;99.90
2929;DHT22;1474;51.460;7.150;2022-11-30T04:45:24;7.70;99.90
2929;DHT22;1474;51.460;7.150;2022-11-30T04:47:50;7.70;99.90
2929;DHT22;1474;51.460;7.150;2022-11-30T04:50:15;7.70;99.90
2929;DHT22;1474;51.460;7.150;2022-11-30T04:52:41;7.70;99.90
2929;DHT22;1474;51.460;7.150;2022-11-30T04:55:07;7.80;99.90
2929;DHT22;1474;51.460;7.150;2022-11-30T04:57:32;7.70;99.90
2929;DHT22;1474;51.460;7.150;2022-11-30T04:59:58;7.80;99.90
2929;DHT22;1474;51.460;7.150;2022-11-30T05:02:23;7.80;99.90
2929;DHT22;1474;51.460;7.150;2022-11-30T05:04:49;7.80;99.90
2929;DHT22;1474;51.460;7.150;2022-11-30T05:07:15;7.70;99.90
2929;DHT22;1474;51.460;7.150;2022-11-30T05:09:40;7.80;99.90
2929;DHT22;1474;51.460;7.150;2022-11-30T05:12:06;7.80;99.90
2929;DHT22;1474;51.460;7.150;2022-11-30T05:14:35;7.80;99.90
2929;DHT22;1474;51.460;7.150;2022-11-30T05:17:00;7.80;99.90
2929;DHT22;1474;51.460;7.150;2022-11-30T05:19:26;7.80;99.90
2929;DHT22;1474;51.460;7.150;2022-11-30T05:21:51;7.80;99.90
2929;DHT22;1474;51.460;7.150;2022-11-30T05:24:17;7.90;99.90
2929;DHT22;1474;51.460;7.150;2022-11-30T05:26:43;7.90;99.90
2929;DHT22;1474;51.460;7.150;2022-11-30T05:29:08;7.80;99.90
2929;DHT22;1474;51.460;7.150;2022-11-30T05:31:34;7.90;99.90
2929;DHT22;1474;51.460;7.150;2022-11-30T05:34:02;7.90;99.90
2929;DHT22;1474;51.460;7.150;2022-11-30T05:36:28;7.90;99.90
2929;DHT22;1474;51.460;7.150;2022-11-30T05:38:53;7.90;99.90
2929;DHT22;1474;51.460;7.150;2022-11-30T05:41:19;7.90;99.90
2929;DHT22;1474;51.460;7.150;2022-11-30T05:43:44;7.90;99.90
2929;DHT22;1474;51.460;7.150;2022-11-30T05:46:10;7.90;99.90
2929;DHT22;1474;51.460;7.150;2022-11-30T05:48:36;7.90;99.90
2929;DHT22;1474;51.460;7.150;2022-11-30T05:53:32;7.90;99.90
2929;DHT22;1474;51.460;7.150;2022-11-30T05:56:04;7.90;99.90
2929;DHT22;1474;51.460;7.150;2022-11-30T05:58:30;7.90;99.90
2929;DHT22;1474;51.460;7.150;2022-11-30T06:00:56;7.90;99.90
2929;DHT22;1474;51.460;7.150;2022-11-30T06:03:21;7.90;99.90
2929;DHT22;1474;51.460;7.150;2022-11-30T06:05:51;7.90;99.90
2929;DHT22;1474;51.460;7.150;2022-11-30T06:08:17;7.90;99.90
2929;DHT22;1474;51.460;7.150;2022-11-30T06:10:43;7.90;99.90
2929;DHT22;1474;51.460;7.150;2022-11-30T06:13:08;7.90;99.90
2929;DHT22;1474;51.460;7.150;2022-11-30T06:15:38;7.80;99.90
2929;DHT22;1474;51.460;7.150;2022-11-30T06:18:04;7.80;99.90
2929;DHT22;1474;51.460;7.150;2022-11-30T06:20:30;7.80;99.90
2929;DHT22;1474;51.460;7.150;2022-11-30T06:22:56;7.80;99.90
2929;DHT22;1474;51.460;7.150;2022-11-30T06:25:29;7.80;99.90
2929;DHT22;1474;51.460;7.150;2022-11-30T06:27:55;7.90;99.90
2929;DHT22;1474;51.460;7.150;2022-11-30T06:30:20;7.90;99.90
2929;DHT22;1474;51.460;7.150;2022-11-30T06:32:48;7.80;99.90
2929;DHT22;1474;51.460;7.150;2022-11-30T06:35:14;7.90;99.90
2929;DHT22;1474;51.460;7.150;2022-11-30T06:37:40;7.90;99.90
2929;DHT22;1474;51.460;7.150;2022-11-30T06:40:07;7.90;99.90
2929;DHT22;1474;51.460;7.150;2022-11-30T06:42:34;7.90;99.90
2929;DHT22;1474;51.460;7.150;2022-11-30T06:45:00;7.90;99.90
2929;DHT22;1474;51.460;7.150;2022-11-30T06:47:26;7.90;99.90
2929;DHT22;1474;51.460;7.150;2022-11-30T06:49:52;7.90;99.90
2929;DHT22;1474;51.460;7.150;2022-11-30T06:52:18;7.90;99.90
2929;DHT22;1474;51.460;7.150;2022-11-30T06:54:44;7.90;99.90
2929;DHT22;1474;51.460;7.150;2022-11-30T06:57:10;7.90;99.90
2929;DHT22;1474;51.460;7.150;2022-11-30T06:59:35;7.90;99.90
2929;DHT22;1474;51.460;7.150;2022-11-30T07:02:02;7.90;99.90
2929;DHT22;1474;51.460;7.150;2022-11-30T07:04:28;7.90;99.90
2929;DHT22;1474;51.460;7.150;2022-11-30T07:06:54;7.90;99.90
2929;DHT22;1474;51.460;7.150;2022-11-30T07:09:19;7.90;99.90
2929;DHT22;1474;51.460;7.150;2022-11-30T07:11:45;7.90;99.90
2929;DHT22;1474;51.460;7.150;2022-11-30T07:14:11;7.80;99.90
2929;DHT22;1474;51.460;7.150;2022-11-30T07:16:37;7.80;99.90
2929;DHT22;1474;51.460;7.150;2022-11-30T07:19:04;7.80;99.90
2929;DHT22;1474;51.460;7.150;2022-11-30T07:21:30;7.80;99.90
2929;DHT22;1474;51.460;7.150;2022-11-30T07:23:55;7.80;99.90
2929;DHT22;1474;51.460;7.150;2022-11-30T07:26:40;7.80;99.90
2929;DHT22;1474;51.460;7.150;2022-11-30T07:29:05;7.80;99.90
2929;DHT22;1474;51.460;7.150;2022-11-30T07:31:32;7.90;99.90
2929;DHT22;1474;51.460;7.150;2022-11-30T07:34:10;7.90;99.90
2929;DHT22;1474;51.460;7.150;2022-11-30T07:36:38;7.80;99.90
2929;DHT22;1474;51.460;7.150;2022-11-30T07:39:04;7.80;99.90
2929;DHT22;1474;51.460;7.150;2022-11-30T07:41:30;7.80;99.90
2929;DHT22;1474;51.460;7.150;2022-11-30T07:43:55;7.80;99.90
2929;DHT22;1474;51.460;7.150;2022-11-30T07:46:21;7.80;99.90
2929;DHT22;1474;51.460;7.150;2022-11-30T07:48:47;7.80;99.90
2929;DHT22;1474;51.460;7.150;2022-11-30T07:51:18;7.80;99.90
2929;DHT22;1474;51.460;7.150;2022-11-30T07:53:44;7.80;99.90
2929;DHT22;1474;51.460;7.150;2022-11-30T07:56:14;7.80;99.90
2929;DHT22;1474;51.460;7.150;2022-11-30T07:58:41;7.90;99.90
2929;DHT22;1474;51.460;7.150;2022-11-30T08:01:14;7.80;99.90
2929;DHT22;1474;51.460;7.150;2022-11-30T08:03:49;7.80;99.90
2929;DHT22;1474;51.460;7.150;2022-11-30T08:06:54;7.80;99.90
2929;DHT22;1474;51.460;7.150;2022-11-30T08:12:57;7.80;99.90
2929;DHT22;1474;51.460;7.150;2022-11-30T08:19:47;7.80;99.90
2929;DHT22;1474;51.460;7.150;2022-11-30T08:22:43;7.80;99.90
2929;DHT22;1474;51.460;7.150;2022-11-30T08:33:00;7.70;99.90
2929;DHT22;1474;51.460;7.150;2022-11-30T08:59:18;7.70;99.90
2929;DHT22;1474;51.460;7.150;2022-11-30T09:01:44;7.70;99.90
2929;DHT22;1474;51.460;7.150;2022-11-30T09:04:09;7.70;99.90
2929;DHT22;1474;51.460;7.150;2022-11-30T09:06:35;7.70;99.90
2929;DHT22;1474;51.460;7.150;2022-11-30T09:09:01;7.80;99.90
2929;DHT22;1474;51.460;7.150;2022-11-30T09:11:29;7.70;99.90
2929;DHT22;1474;51.460;7.150;2022-11-30T09:13:57;7.70;99.90
2929;DHT22;1474;51.460;7.150;2022-11-30T09:16:24;7.80;99.90
2929;DHT22;1474;51.460;7.150;2022-11-30T09:18:50;7.70;99.90
2929;DHT22;1474;51.460;7.150;2022-11-30T09:21:19;7.80;99.90
2929;DHT22;1474;51.460;7.150;2022-11-30T09:23:46;7.70;99.90
2929;DHT22;1474;51.460;7.150;2022-11-30T09:26:14;7.80;99.90
2929;DHT22;1474;51.460;7.150;2022-11-30T09:28:42;7.80;99.90
2929;DHT22;1474;51.460;7.150;2022-11-30T09:31:11;7.80;99.90
2929;DHT22;1474;51.460;7.150;2022-11-30T09:33:37;7.80;99.90
2929;DHT22;1474;51.460;7.150;2022-11-30T09:36:07;7.80;99.90
2929;DHT22;1474;51.460;7.150;2022-11-30T09:38:33;7.80;99.90
2929;DHT22;1474;51.460;7.150;2022-11-30T09:41:03;7.80;99.90
2929;DHT22;1474;51.460;7.150;2022-11-30T09:43:39;7.80;99.90
2929;DHT22;1474;51.460;7.150;2022-11-30T09:46:07;7.80;99.90
2929;DHT22;1474;51.460;7.150;2022-11-30T09:49:01;7.80;99.90
2929;DHT22;1474;51.460;7.150;2022-11-30T09:51:37;7.90;99.90
2929;DHT22;1474;51.460;7.150;2022-11-30T09:54:12;7.80;99.90
2929;DHT22;1474;51.460;7.150;2022-11-30T09:56:41;7.80;99.90
2929;DHT22;1474;51.460;7.150;2022-11-30T09:59:30;7.80;99.90
2929;DHT22;1474;51.460;7.150;2022-11-30T10:02:14;7.80;99.90
2929;DHT22;1474;51.460;7.150;2022-11-30T10:04:40;7.70;99.90
2929;DHT22;1474;51.460;7.150;2022-11-30T10:18:11;7.70;99.90
2929;DHT22;1474;51.460;7.150;2022-11-30T10:23:18;7.80;99.90
2929;DHT22;1474;51.460;7.150;2022-11-30T10:25:58;7.90;99.90
2929;DHT22;1474;51.460;7.150;2022-11-30T10:31:37;7.90;99.90
2929;DHT22;1474;51.460;7.150;2022-11-30T10:36:44;7.90;99.90
2929;DHT22;1474;51.460;7.150;2022-11-30T10:39:25;7.90;99.90
2929;DHT22;1474;51.460;7.150;2022-11-30T10:47:32;7.90;99.90
2929;DHT22;1474;51.460;7.150;2022-11-30T10:50:02;7.90;99.90
2929;DHT22;1474;51.460;7.150;2022-11-30T10:52:34;7.90;99.90
2929;DHT22;1474;51.460;7.150;2022-11-30T10:55:14;7.90;99.90
2929;DHT22;1474;51.460;7.150;2022-11-30T10:57:41;7.90;99.90
2929;DHT22;1474;51.460;7.150;2022-11-30T11:00:11;7.80;99.90
2929;DHT22;1474;51.460;7.150;2022-11-30T11:05:23;7.80;99.90
2929;DHT22;1474;51.460;7.150;2022-11-30T11:07:58;7.90;99.90
2929;DHT22;1474;51.460;7.150;2022-11-30T11:10:46;7.90;99.90
2929;DHT22;1474;51.460;7.150;2022-11-30T11:13:16;7.90;99.90
2929;DHT22;1474;51.460;7.150;2022-11-30T11:15:57;7.90;99.90
2929;DHT22;1474;51.460;7.150;2022-11-30T11:18:24;7.90;99.90
2929;DHT22;1474;51.460;7.150;2022-11-30T11:21:06;7.90;99.90
2929;DHT22;1474;51.460;7.150;2022-11-30T11:23:39;7.90;99.90
2929;DHT22;1474;51.460;7.150;2022-11-30T11:26:17;8.00;99.90
2929;DHT22;1474;51.460;7.150;2022-11-30T11:28:45;8.00;99.90
2929;DHT22;1474;51.460;7.150;2022-11-30T11:31:39;7.90;99.90
2929;DHT22;1474;51.460;7.150;2022-11-30T11:39:31;8.00;99.90
2929;DHT22;1474;51.460;7.150;2022-11-30T11:41:57;7.90;99.90
2929;DHT22;1474;51.460;7.150;2022-11-30T11:44:25;7.90;99.90
2929;DHT22;1474;51.460;7.150;2022-11-30T11:46:59;8.00;99.90
2929;DHT22;1474;51.460;7.150;2022-11-30T11:49:35;8.00;99.90
2929;DHT22;1474;51.460;7.150;2022-11-30T11:52:14;7.90;99.90
2929;DHT22;1474;51.460;7.150;2022-11-30T11:57:56;7.90;99.90
2929;DHT22;1474;51.460;7.150;2022-11-30T12:00:23;7.90;99.90
2929;DHT22;1474;51.460;7.150;2022-11-30T12:08:37;7.90;99.90
2929;DHT22;1474;51.460;7.150;2022-11-30T12:10:58;7.90;99.90
2929;DHT22;1474;51.460;7.150;2022-11-30T12:13:38;7.90;99.90
2929;DHT22;1474;51.460;7.150;2022-11-30T12:22:15;7.80;99.90
2929;DHT22;1474;51.460;7.150;2022-11-30T12:27:46;7.90;99.90
2929;DHT22;1474;51.460;7.150;2022-11-30T12:33:11;7.90;99.90
2929;DHT22;1474;51.460;7.150;2022-11-30T12:38:22;7.90;99.90
2929;DHT22;1474;51.460;7.150;2022-11-30T12:43:54;7.80;99.90
2929;DHT22;1474;51.460;7.150;2022-11-30T12:46:51;7.80;99.90
2929;DHT22;1474;51.460;7.150;2022-11-30T12:57:48;7.70;99.90
2929;DHT22;1474;51.460;7.150;2022-11-30T13:00:23;7.70;99.90
2929;DHT22;1474;51.460;7.150;2022-11-30T13:05:38;7.80;99.90
2929;DHT22;1474;51.460;7.150;2022-11-30T13:08:23;7.80;99.90
2929;DHT22;1474;51.460;7.150;2022-11-30T13:10:54;7.80;99.90
2929;DHT22;1474;51.460;7.150;2022-11-30T13:13:28;7.90;99.90
2929;DHT22;1474;51.460;7.150;2022-11-30T13:15:54;7.90;99.90
2929;DHT22;1474;51.460;7.150;2022-11-30T13:18:21;7.90;99.90
2929;DHT22;1474;51.460;7.150;2022-11-30T13:21:00;7.90;99.90
2929;DHT22;1474;51.460;7.150;2022-11-30T13:23:54;7.80;99.90
2929;DHT22;1474;51.460;7.150;2022-11-30T13:29:13;7.90;99.90
2929;DHT22;1474;51.460;7.150;2022-11-30T13:31:49;7.90;99.90
2929;DHT22;1474;51.460;7.150;2022-11-30T13:34:27;7.80;99.90
2929;DHT22;1474;51.460;7.150;2022-11-30T13:37:18;7.90;99.90
2929;DHT22;1474;51.460;7.150;2022-11-30T13:39:49;7.90;99.90
2929;DHT22;1474;51.460;7.150;2022-11-30T13:42:28;7.90;99.90
2929;DHT22;1474;51.460;7.150;2022-11-30T13:44:55;7.80;99.90
2929;DHT22;1474;51.460;7.150;2022-11-30T13:47:32;7.80;99.90
2929;DHT22;1474;51.460;7.150;2022-11-30T13:50:14;7.80;99.90
2929;DHT22;1474;51.460;7.150;2022-11-30T14:03:00;7.80;99.90
2929;DHT22;1474;51.460;7.150;2022-11-30T14:06:47;7.70;99.90
2929;DHT22;1474;51.460;7.150;2022-11-30T14:08:45;7.80;99.90
2929;DHT22;1474;51.460;7.150;2022-11-30T14:11:34;7.80;99.90
2929;DHT22;1474;51.460;7.150;2022-11-30T14:17:10;7.80;99.90
2929;DHT22;1474;51.460;7.150;2022-11-30T14:19:37;7.80;99.90
2929;DHT22;1474;51.460;7.150;2022-11-30T14:22:04;7.80;99.90
2929;DHT22;1474;51.460;7.150;2022-11-30T14:24:35;7.70;99.90
2929;DHT22;1474;51.460;7.150;2022-11-30T14:27:02;7.70;99.90
2929;DHT22;1474;51.460;7.150;2022-11-30T14:29:31;7.70;99.90
2929;DHT22;1474;51.460;7.150;2022-11-30T14:32:11;7.60;99.90
2929;DHT22;1474;51.460;7.150;2022-11-30T14:34:51;7.60;99.90
2929;DHT22;1474;51.460;7.150;2022-11-30T14:39:49;7.70;99.90
2929;DHT22;1474;51.460;7.150;2022-11-30T14:42:25;7.70;99.90
2929;DHT22;1474;51.460;7.150;2022-11-30T14:44:52;7.70;99.90
2929;DHT22;1474;51.460;7.150;2022-11-30T14:47:34;7.70;99.90
2929;DHT22;1474;51.460;7.150;2022-11-30T14:50:01;7.80;99.90
2929;DHT22;1474;51.460;7.150;2022-11-30T15:00:53;7.70;99.90
2929;DHT22;1474;51.460;7.150;2022-11-30T15:03:21;7.60;99.90
2929;DHT22;1474;51.460;7.150;2022-11-30T15:05:56;7.60;99.90
2929;DHT22;1474;51.460;7.150;2022-11-30T15:08:23;7.60;99.90
2929;DHT22;1474;51.460;7.150;2022-11-30T15:10:49;7.60;99.90
2929;DHT22;1474;51.460;7.150;2022-11-30T15:13:17;7.60;99.90
2929;DHT22;1474;51.460;7.150;2022-11-30T15:15:50;7.50;99.90
2929;DHT22;1474;51.460;7.150;2022-11-30T15:18:17;7.60;99.90
2929;DHT22;1474;51.460;7.150;2022-11-30T15:20:54;7.50;99.90
2929;DHT22;1474;51.460;7.150;2022-11-30T15:23:20;7.40;99.90
2929;DHT22;1474;51.460;7.150;2022-11-30T15:28:26;7.40;99.90
2929;DHT22;1474;51.460;7.150;2022-11-30T15:30:57;7.40;99.90
2929;DHT22;1474;51.460;7.150;2022-11-30T15:33:32;7.30;99.90
2929;DHT22;1474;51.460;7.150;2022-11-30T15:35:59;7.40;99.90
2929;DHT22;1474;51.460;7.150;2022-11-30T15:38:26;7.40;99.90
2929;DHT22;1474;51.460;7.150;2022-11-30T15:41:11;7.40;99.90
2929;DHT22;1474;51.460;7.150;2022-11-30T15:43:40;7.40;99.90
2929;DHT22;1474;51.460;7.150;2022-11-30T15:46:27;7.30;99.90
2929;DHT22;1474;51.460;7.150;2022-11-30T15:49:13;7.30;99.90
2929;DHT22;1474;51.460;7.150;2022-11-30T15:51:41;7.30;99.90
2929;DHT22;1474;51.460;7.150;2022-11-30T15:54:07;7.40;99.90
2929;DHT22;1474;51.460;7.150;2022-11-30T15:56:33;7.40;99.90
2929;DHT22;1474;51.460;7.150;2022-11-30T15:59:21;7.40;99.90
2929;DHT22;1474;51.460;7.150;2022-11-30T16:04:28;7.40;99.90
2929;DHT22;1474;51.460;7.150;2022-11-30T16:06:54;7.40;99.90
2929;DHT22;1474;51.460;7.150;2022-11-30T16:09:28;7.40;99.90
2929;DHT22;1474;51.460;7.150;2022-11-30T16:11:59;7.40;99.90
2929;DHT22;1474;51.460;7.150;2022-11-30T16:14:25;7.50;99.90
2929;DHT22;1474;51.460;7.150;2022-11-30T16:16:51;7.40;99.90
2929;DHT22;1474;51.460;7.150;2022-11-30T16:19:19;7.40;99.90
2929;DHT22;1474;51.460;7.150;2022-11-30T16:21:45;7.40;99.90
2929;DHT22;1474;51.460;7.150;2022-11-30T16:24:13;7.40;99.90
2929;DHT22;1474;51.460;7.150;2022-11-30T16:26:39;7.40;99.90
2929;DHT22;1474;51.460;7.150;2022-11-30T16:29:05;7.40;99.90
2929;DHT22;1474;51.460;7.150;2022-11-30T16:31:31;7.40;99.90
2929;DHT22;1474;51.460;7.150;2022-11-30T16:33:56;7.40;99.90
2929;DHT22;1474;51.460;7.150;2022-11-30T16:36:22;7.40;99.90
2929;DHT22;1474;51.460;7.150;2022-11-30T16:38:50;7.30;99.90
2929;DHT22;1474;51.460;7.150;2022-11-30T16:41:19;7.30;99.90
2929;DHT22;1474;51.460;7.150;2022-11-30T16:43:50;7.40;99.90
2929;DHT22;1474;51.460;7.150;2022-11-30T16:46:21;7.40;99.90
2929;DHT22;1474;51.460;7.150;2022-11-30T16:48:48;7.40;99.90
2929;DHT22;1474;51.460;7.150;2022-11-30T16:53:51;7.40;99.90
2929;DHT22;1474;51.460;7.150;2022-11-30T16:56:17;7.30;99.90
2929;DHT22;1474;51.460;7.150;2022-11-30T16:58:44;7.30;99.90
2929;DHT22;1474;51.460;7.150;2022-11-30T17:01:16;7.30;99.90
2929;DHT22;1474;51.460;7.150;2022-11-30T17:03:45;7.30;99.90
2929;DHT22;1474;51.460;7.150;2022-11-30T17:06:17;7.30;99.90
2929;DHT22;1474;51.460;7.150;2022-11-30T17:08:43;7.30;99.90
2929;DHT22;1474;51.460;7.150;2022-11-30T17:11:18;7.20;99.90
2929;DHT22;1474;51.460;7.150;2022-11-30T17:13:47;7.30;99.90
2929;DHT22;1474;51.460;7.150;2022-11-30T17:16:13;7.30;99.90
2929;DHT22;1474;51.460;7.150;2022-11-30T17:18:39;7.30;99.90
2929;DHT22;1474;51.460;7.150;2022-11-30T17:21:05;7.30;99.90
2929;DHT22;1474;51.460;7.150;2022-11-30T17:23:31;7.30;99.90
2929;DHT22;1474;51.460;7.150;2022-11-30T17:25:56;7.30;99.90
2929;DHT22;1474;51.460;7.150;2022-11-30T17:28:22;7.20;99.90
2929;DHT22;1474;51.460;7.150;2022-11-30T17:30:48;7.20;99.90
2929;DHT22;1474;51.460;7.150;2022-11-30T17:33:13;7.20;99.90
2929;DHT22;1474;51.460;7.150;2022-11-30T17:35:39;7.20;99.90
2929;DHT22;1474;51.460;7.150;2022-11-30T17:38:05;7.30;99.90
2929;DHT22;1474;51.460;7.150;2022-11-30T17:40:30;7.30;99.90
2929;DHT22;1474;51.460;7.150;2022-11-30T17:42:56;7.30;99.90
2929;DHT22;1474;51.460;7.150;2022-11-30T17:45:22;7.20;99.90
2929;DHT22;1474;51.460;7.150;2022-11-30T17:47:47;7.10;99.90
2929;DHT22;1474;51.460;7.150;2022-11-30T17:50:13;7.20;99.90
2929;DHT22;1474;51.460;7.150;2022-11-30T17:52:39;7.20;99.90
2929;DHT22;1474;51.460;7.150;2022-11-30T17:55:05;7.20;99.90
2929;DHT22;1474;51.460;7.150;2022-11-30T17:57:31;7.20;99.90
2929;DHT22;1474;51.460;7.150;2022-11-30T17:59:57;7.20;99.90
2929;DHT22;1474;51.460;7.150;2022-11-30T18:02:23;7.20;99.90
2929;DHT22;1474;51.460;7.150;2022-11-30T18:04:48;7.20;99.90
2929;DHT22;1474;51.460;7.150;2022-11-30T18:07:14;7.20;99.90
2929;DHT22;1474;51.460;7.150;2022-11-30T18:09:40;7.20;99.90
2929;DHT22;1474;51.460;7.150;2022-11-30T18:12:05;7.20;99.90
2929;DHT22;1474;51.460;7.150;2022-11-30T18:14:31;7.10;99.90
2929;DHT22;1474;51.460;7.150;2022-11-30T18:16:56;7.20;99.90
2929;DHT22;1474;51.460;7.150;2022-11-30T18:19:22;7.10;99.90
2929;DHT22;1474;51.460;7.150;2022-11-30T18:21:48;7.10;99.90
2929;DHT22;1474;51.460;7.150;2022-11-30T18:24:13;7.10;99.90
2929;DHT22;1474;51.460;7.150;2022-11-30T18:26:39;7.10;99.90
2929;DHT22;1474;51.460;7.150;2022-11-30T18:29:06;7.00;99.90
2929;DHT22;1474;51.460;7.150;2022-11-30T18:31:32;6.70;99.90
2929;DHT22;1474;51.460;7.150;2022-11-30T18:34:05;6.60;99.90
2929;DHT22;1474;51.460;7.150;2022-11-30T18:36:32;6.60;99.90
2929;DHT22;1474;51.460;7.150;2022-11-30T18:38:58;6.60;99.90
2929;DHT22;1474;51.460;7.150;2022-11-30T18:41:24;6.60;99.90
2929;DHT22;1474;51.460;7.150;2022-11-30T18:43:51;6.60;99.90
2929;DHT22;1474;51.460;7.150;2022-11-30T18:46:17;6.60;99.90
2929;DHT22;1474;51.460;7.150;2022-11-30T18:48:47;6.70;99.90
2929;DHT22;1474;51.460;7.150;2022-11-30T18:51:20;6.80;99.90
2929;DHT22;1474;51.460;7.150;2022-11-30T18:53:46;6.80;99.90
2929;DHT22;1474;51.460;7.150;2022-11-30T18:56:18;6.70;99.90
2929;DHT22;1474;51.460;7.150;2022-11-30T18:58:44;6.80;99.90
2929;DHT22;1474;51.460;7.150;2022-11-30T19:01:18;6.70;99.90
2929;DHT22;1474;51.460;7.150;2022-11-30T19:03:58;6.60;99.90
2929;DHT22;1474;51.460;7.150;2022-11-30T19:06:25;6.50;99.90
2929;DHT22;1474;51.460;7.150;2022-11-30T19:08:57;6.40;99.90
2929;DHT22;1474;51.460;7.150;2022-11-30T19:11:22;6.40;99.90
2929;DHT22;1474;51.460;7.150;2022-11-30T19:13:54;6.40;99.90
2929;DHT22;1474;51.460;7.150;2022-11-30T19:16:20;6.30;99.90
2929;DHT22;1474;51.460;7.150;2022-11-30T19:18:46;6.30;99.90
2929;DHT22;1474;51.460;7.150;2022-11-30T19:21:14;6.20;99.90
2929;DHT22;1474;51.460;7.150;2022-11-30T19:23:41;6.10;99.90
2929;DHT22;1474;51.460;7.150;2022-11-30T19:26:07;6.10;99.90